sensor_id;sensor_type;location;lat;lon;timestamp;P1;durP1;ratioP1;P2;durP2;ratioP2
67930;SDS011;63902;52.000;5.954;2023-10-08T00:00:49;16.42;;;4.00;;
67930;SDS011;63902;52.000;5.954;2023-10-08T00:01:50;16.85;;;3.50;;
67930;SDS011;63902;52.000;5.954;2023-10-08T00:02:50;18.08;;;4.05;;
67930;SDS011;63902;52.000;5.954;2023-10-08T00:03:51;14.70;;;3.85;;
67930;SDS011;63902;52.000;5.954;2023-10-08T00:04:51;15.25;;;3.75;;
67930;SDS011;63902;52.000;5.954;2023-10-08T00:05:52;14.63;;;3.80;;
67930;SDS011;63902;52.000;5.954;2023-10-08T00:06:53;13.35;;;3.47;;
67930;SDS011;63902;52.000;5.954;2023-10-08T00:07:53;22.55;;;4.43;;
67930;SDS011;63902;52.000;5.954;2023-10-08T00:08:54;11.93;;;3.83;;
67930;SDS011;63902;52.000;5.954;2023-10-08T00:09:54;22.27;;;4.03;;
67930;SDS011;63902;52.000;5.954;2023-10-08T00:10:55;16.90;;;4.32;;
67930;SDS011;63902;52.000;5.954;2023-10-08T00:11:56;22.17;;;4.40;;
67930;SDS011;63902;52.000;5.954;2023-10-08T00:12:58;15.25;;;4.32;;
67930;SDS011;63902;52.000;5.954;2023-10-08T00:13:58;20.52;;;3.63;;
67930;SDS011;63902;52.000;5.954;2023-10-08T00:14:59;21.55;;;4.10;;
67930;SDS011;63902;52.000;5.954;2023-10-08T00:15:59;18.40;;;3.70;;
67930;SDS011;63902;52.000;5.954;2023-10-08T00:17:00;15.05;;;3.70;;
67930;SDS011;63902;52.000;5.954;2023-10-08T00:18:00;21.75;;;4.05;;
67930;SDS011;63902;52.000;5.954;2023-10-08T00:19:01;15.68;;;4.00;;
67930;SDS011;63902;52.000;5.954;2023-10-08T00:20:01;15.60;;;4.05;;
67930;SDS011;63902;52.000;5.954;2023-10-08T00:21:02;19.42;;;3.53;;
67930;SDS011;63902;52.000;5.954;2023-10-08T00:22:03;16.25;;;3.63;;
67930;SDS011;63902;52.000;5.954;2023-10-08T00:23:03;20.52;;;4.22;;
67930;SDS011;63902;52.000;5.954;2023-10-08T00:24:04;15.05;;;3.63;;
67930;SDS011;63902;52.000;5.954;2023-10-08T00:25:05;14.82;;;4.07;;
67930;SDS011;63902;52.000;5.954;2023-10-08T00:26:06;15.88;;;3.47;;
67930;SDS011;63902;52.000;5.954;2023-10-08T00:27:06;22.67;;;4.18;;
67930;SDS011;63902;52.000;5.954;2023-10-08T00:28:09;15.40;;;3.85;;
67930;SDS011;63902;52.000;5.954;2023-10-08T00:29:10;17.40;;;4.40;;
67930;SDS011;63902;52.000;5.954;2023-10-08T00:30:11;23.48;;;4.38;;
67930;SDS011;63902;52.000;5.954;2023-10-08T00:31:12;12.68;;;3.92;;
67930;SDS011;63902;52.000;5.954;2023-10-08T00:32:13;18.02;;;3.70;;
67930;SDS011;63902;52.000;5.954;2023-10-08T00:33:14;17.35;;;4.10;;
67930;SDS011;63902;52.000;5.954;2023-10-08T00:34:14;14.23;;;3.40;;
67930;SDS011;63902;52.000;5.954;2023-10-08T00:35:16;15.85;;;3.97;;
67930;SDS011;63902;52.000;5.954;2023-10-08T00:36:16;22.70;;;3.83;;
67930;SDS011;63902;52.000;5.954;2023-10-08T00:37:17;18.20;;;3.65;;
67930;SDS011;63902;52.000;5.954;2023-10-08T00:38:17;12.45;;;3.67;;
67930;SDS011;63902;52.000;5.954;2023-10-08T00:39:18;23.63;;;4.30;;
67930;SDS011;63902;52.000;5.954;2023-10-08T00:40:19;12.60;;;4.18;;
67930;SDS011;63902;52.000;5.954;2023-10-08T00:41:19;16.67;;;3.85;;
67930;SDS011;63902;52.000;5.954;2023-10-08T00:42:20;13.40;;;3.95;;
67930;SDS011;63902;52.000;5.954;2023-10-08T00:43:31;15.27;;;4.47;;
67930;SDS011;63902;52.000;5.954;2023-10-08T00:44:31;16.65;;;4.40;;
67930;SDS011;63902;52.000;5.954;2023-10-08T00:45:32;19.58;;;4.70;;
67930;SDS011;63902;52.000;5.954;2023-10-08T00:46:32;25.05;;;4.47;;
67930;SDS011;63902;52.000;5.954;2023-10-08T00:47:33;22.95;;;4.03;;
67930;SDS011;63902;52.000;5.954;2023-10-08T00:48:34;15.38;;;3.90;;
67930;SDS011;63902;52.000;5.954;2023-10-08T00:49:34;12.05;;;3.17;;
67930;SDS011;63902;52.000;5.954;2023-10-08T00:50:35;19.05;;;4.32;;
67930;SDS011;63902;52.000;5.954;2023-10-08T00:51:36;20.88;;;4.30;;
67930;SDS011;63902;52.000;5.954;2023-10-08T00:52:37;15.00;;;4.35;;
67930;SDS011;63902;52.000;5.954;2023-10-08T00:53:38;19.10;;;4.18;;
67930;SDS011;63902;52.000;5.954;2023-10-08T00:54:39;19.85;;;4.15;;
67930;SDS011;63902;52.000;5.954;2023-10-08T00:55:40;20.15;;;3.75;;
67930;SDS011;63902;52.000;5.954;2023-10-08T00:56:41;20.27;;;4.15;;
67930;SDS011;63902;52.000;5.954;2023-10-08T00:57:41;22.63;;;4.07;;
67930;SDS011;63902;52.000;5.954;2023-10-08T00:58:44;21.65;;;4.65;;
67930;SDS011;63902;52.000;5.954;2023-10-08T00:59:45;21.60;;;4.35;;
67930;SDS011;63902;52.000;5.954;2023-10-08T01:00:46;15.35;;;4.63;;
67930;SDS011;63902;52.000;5.954;2023-10-08T01:01:47;20.50;;;3.95;;
67930;SDS011;63902;52.000;5.954;2023-10-08T01:02:49;18.75;;;4.22;;
67930;SDS011;63902;52.000;5.954;2023-10-08T01:03:49;21.63;;;4.78;;
67930;SDS011;63902;52.000;5.954;2023-10-08T01:04:50;18.35;;;3.88;;
67930;SDS011;63902;52.000;5.954;2023-10-08T01:05:50;17.20;;;4.25;;
67930;SDS011;63902;52.000;5.954;2023-10-08T01:06:51;16.98;;;3.92;;
67930;SDS011;63902;52.000;5.954;2023-10-08T01:07:53;19.10;;;4.10;;
67930;SDS011;63902;52.000;5.954;2023-10-08T01:08:54;22.60;;;4.78;;
67930;SDS011;63902;52.000;5.954;2023-10-08T01:09:55;21.50;;;4.60;;
67930;SDS011;63902;52.000;5.954;2023-10-08T01:10:55;24.27;;;4.68;;
67930;SDS011;63902;52.000;5.954;2023-10-08T01:12:09;17.98;;;4.65;;
67930;SDS011;63902;52.000;5.954;2023-10-08T01:13:11;21.42;;;4.25;;
67930;SDS011;63902;52.000;5.954;2023-10-08T01:14:13;12.85;;;3.47;;
67930;SDS011;63902;52.000;5.954;2023-10-08T01:15:13;18.08;;;4.22;;
67930;SDS011;63902;52.000;5.954;2023-10-08T01:16:13;18.17;;;3.90;;
67930;SDS011;63902;52.000;5.954;2023-10-08T01:17:14;16.48;;;4.40;;
67930;SDS011;63902;52.000;5.954;2023-10-08T01:18:16;16.20;;;4.53;;
67930;SDS011;63902;52.000;5.954;2023-10-08T01:19:19;19.20;;;4.50;;
67930;SDS011;63902;52.000;5.954;2023-10-08T01:20:19;17.33;;;4.20;;
67930;SDS011;63902;52.000;5.954;2023-10-08T01:21:20;14.13;;;4.63;;
67930;SDS011;63902;52.000;5.954;2023-10-08T01:22:22;16.35;;;3.33;;
67930;SDS011;63902;52.000;5.954;2023-10-08T01:23:23;16.67;;;4.10;;
67930;SDS011;63902;52.000;5.954;2023-10-08T01:24:25;20.85;;;4.50;;
67930;SDS011;63902;52.000;5.954;2023-10-08T01:25:25;15.80;;;4.22;;
67930;SDS011;63902;52.000;5.954;2023-10-08T01:26:26;14.85;;;4.05;;
67930;SDS011;63902;52.000;5.954;2023-10-08T01:27:29;17.50;;;4.55;;
67930;SDS011;63902;52.000;5.954;2023-10-08T01:28:31;15.60;;;4.93;;
67930;SDS011;63902;52.000;5.954;2023-10-08T01:29:31;16.38;;;3.75;;
67930;SDS011;63902;52.000;5.954;2023-10-08T01:30:32;19.55;;;4.63;;
67930;SDS011;63902;52.000;5.954;2023-10-08T01:31:32;13.43;;;4.00;;
67930;SDS011;63902;52.000;5.954;2023-10-08T01:32:33;18.23;;;4.32;;
67930;SDS011;63902;52.000;5.954;2023-10-08T01:33:33;23.13;;;4.65;;
67930;SDS011;63902;52.000;5.954;2023-10-08T01:34:34;20.83;;;5.32;;
67930;SDS011;63902;52.000;5.954;2023-10-08T01:35:34;22.85;;;3.85;;
67930;SDS011;63902;52.000;5.954;2023-10-08T01:36:35;17.63;;;3.97;;
67930;SDS011;63902;52.000;5.954;2023-10-08T01:37:37;19.92;;;4.40;;
67930;SDS011;63902;52.000;5.954;2023-10-08T01:38:37;23.83;;;4.43;;
67930;SDS011;63902;52.000;5.954;2023-10-08T01:39:38;16.80;;;4.50;;
67930;SDS011;63902;52.000;5.954;2023-10-08T01:40:41;14.40;;;3.40;;
67930;SDS011;63902;52.000;5.954;2023-10-08T01:41:42;14.88;;;3.58;;
67930;SDS011;63902;52.000;5.954;2023-10-08T01:42:44;19.30;;;4.63;;
67930;SDS011;63902;52.000;5.954;2023-10-08T01:43:44;28.13;;;4.60;;
67930;SDS011;63902;52.000;5.954;2023-10-08T01:44:45;20.75;;;4.63;;
67930;SDS011;63902;52.000;5.954;2023-10-08T01:45:47;16.00;;;4.22;;
67930;SDS011;63902;52.000;5.954;2023-10-08T01:46:47;16.40;;;3.80;;
67930;SDS011;63902;52.000;5.954;2023-10-08T01:47:48;17.38;;;4.50;;
67930;SDS011;63902;52.000;5.954;2023-10-08T01:48:48;14.23;;;4.05;;
67930;SDS011;63902;52.000;5.954;2023-10-08T01:49:49;10.52;;;4.05;;
67930;SDS011;63902;52.000;5.954;2023-10-08T01:50:49;14.27;;;3.40;;
67930;SDS011;63902;52.000;5.954;2023-10-08T01:51:53;17.38;;;3.78;;
67930;SDS011;63902;52.000;5.954;2023-10-08T01:52:55;17.45;;;4.07;;
67930;SDS011;63902;52.000;5.954;2023-10-08T01:53:56;20.08;;;3.92;;
67930;SDS011;63902;52.000;5.954;2023-10-08T01:54:56;12.70;;;3.78;;
67930;SDS011;63902;52.000;5.954;2023-10-08T01:55:57;15.23;;;3.53;;
67930;SDS011;63902;52.000;5.954;2023-10-08T01:56:58;12.30;;;3.47;;
67930;SDS011;63902;52.000;5.954;2023-10-08T01:57:58;20.15;;;4.55;;
67930;SDS011;63902;52.000;5.954;2023-10-08T01:58:59;10.38;;;3.80;;
67930;SDS011;63902;52.000;5.954;2023-10-08T01:59:59;14.27;;;3.75;;
67930;SDS011;63902;52.000;5.954;2023-10-08T02:00:59;14.20;;;4.32;;
67930;SDS011;63902;52.000;5.954;2023-10-08T02:02:00;17.42;;;4.05;;
67930;SDS011;63902;52.000;5.954;2023-10-08T02:03:01;14.60;;;3.22;;
67930;SDS011;63902;52.000;5.954;2023-10-08T02:04:01;18.73;;;4.20;;
67930;SDS011;63902;52.000;5.954;2023-10-08T02:05:02;20.70;;;4.82;;
67930;SDS011;63902;52.000;5.954;2023-10-08T02:06:02;20.52;;;4.00;;
67930;SDS011;63902;52.000;5.954;2023-10-08T02:07:03;18.15;;;4.82;;
67930;SDS011;63902;52.000;5.954;2023-10-08T02:08:06;17.80;;;4.20;;
67930;SDS011;63902;52.000;5.954;2023-10-08T02:09:06;16.65;;;3.80;;
67930;SDS011;63902;52.000;5.954;2023-10-08T02:10:07;22.30;;;4.90;;
67930;SDS011;63902;52.000;5.954;2023-10-08T02:11:08;17.83;;;4.22;;
67930;SDS011;63902;52.000;5.954;2023-10-08T02:12:09;14.52;;;3.97;;
67930;SDS011;63902;52.000;5.954;2023-10-08T02:13:09;16.13;;;4.32;;
67930;SDS011;63902;52.000;5.954;2023-10-08T02:14:10;12.32;;;3.72;;
67930;SDS011;63902;52.000;5.954;2023-10-08T02:15:11;15.20;;;3.53;;
67930;SDS011;63902;52.000;5.954;2023-10-08T02:16:11;18.00;;;4.38;;
67930;SDS011;63902;52.000;5.954;2023-10-08T02:17:17;16.23;;;4.05;;
67930;SDS011;63902;52.000;5.954;2023-10-08T02:18:18;15.00;;;3.92;;
67930;SDS011;63902;52.000;5.954;2023-10-08T02:19:19;13.65;;;3.88;;
67930;SDS011;63902;52.000;5.954;2023-10-08T02:20:19;15.82;;;4.15;;
67930;SDS011;63902;52.000;5.954;2023-10-08T02:21:20;14.57;;;4.13;;
67930;SDS011;63902;52.000;5.954;2023-10-08T02:22:20;24.58;;;4.18;;
67930;SDS011;63902;52.000;5.954;2023-10-08T02:23:22;16.10;;;3.95;;
67930;SDS011;63902;52.000;5.954;2023-10-08T02:24:22;19.65;;;4.93;;
67930;SDS011;63902;52.000;5.954;2023-10-08T02:25:24;13.30;;;4.95;;
67930;SDS011;63902;52.000;5.954;2023-10-08T02:26:24;18.75;;;3.70;;
67930;SDS011;63902;52.000;5.954;2023-10-08T02:27:25;17.08;;;3.88;;
67930;SDS011;63902;52.000;5.954;2023-10-08T02:28:25;19.17;;;4.95;;
67930;SDS011;63902;52.000;5.954;2023-10-08T02:29:26;19.90;;;5.05;;
67930;SDS011;63902;52.000;5.954;2023-10-08T02:30:29;19.48;;;4.38;;
67930;SDS011;63902;52.000;5.954;2023-10-08T02:31:29;18.00;;;4.13;;
67930;SDS011;63902;52.000;5.954;2023-10-08T02:32:30;12.25;;;3.90;;
67930;SDS011;63902;52.000;5.954;2023-10-08T02:33:30;16.77;;;4.22;;
67930;SDS011;63902;52.000;5.954;2023-10-08T02:34:31;14.57;;;4.07;;
67930;SDS011;63902;52.000;5.954;2023-10-08T02:35:31;22.70;;;4.15;;
67930;SDS011;63902;52.000;5.954;2023-10-08T02:36:32;16.13;;;4.28;;
67930;SDS011;63902;52.000;5.954;2023-10-08T02:37:32;16.77;;;4.75;;
67930;SDS011;63902;52.000;5.954;2023-10-08T02:38:34;22.90;;;4.95;;
67930;SDS011;63902;52.000;5.954;2023-10-08T02:39:34;24.88;;;4.97;;
67930;SDS011;63902;52.000;5.954;2023-10-08T02:40:37;22.48;;;4.88;;
67930;SDS011;63902;52.000;5.954;2023-10-08T02:41:37;17.15;;;4.13;;
67930;SDS011;63902;52.000;5.954;2023-10-08T02:42:38;13.15;;;3.88;;
67930;SDS011;63902;52.000;5.954;2023-10-08T02:43:38;17.92;;;4.93;;
67930;SDS011;63902;52.000;5.954;2023-10-08T02:44:39;17.95;;;4.40;;
67930;SDS011;63902;52.000;5.954;2023-10-08T02:45:40;21.63;;;4.95;;
67930;SDS011;63902;52.000;5.954;2023-10-08T02:46:40;17.42;;;4.32;;
67930;SDS011;63902;52.000;5.954;2023-10-08T02:47:42;13.25;;;4.00;;
67930;SDS011;63902;52.000;5.954;2023-10-08T02:48:42;21.33;;;5.10;;
67930;SDS011;63902;52.000;5.954;2023-10-08T02:49:44;21.10;;;3.97;;
67930;SDS011;63902;52.000;5.954;2023-10-08T02:50:45;19.25;;;4.03;;
67930;SDS011;63902;52.000;5.954;2023-10-08T02:51:45;18.67;;;4.57;;
67930;SDS011;63902;52.000;5.954;2023-10-08T02:52:47;15.93;;;4.10;;
67930;SDS011;63902;52.000;5.954;2023-10-08T02:53:49;16.50;;;4.50;;
67930;SDS011;63902;52.000;5.954;2023-10-08T02:54:49;20.27;;;3.78;;
67930;SDS011;63902;52.000;5.954;2023-10-08T02:55:50;18.25;;;4.63;;
67930;SDS011;63902;52.000;5.954;2023-10-08T02:56:51;16.30;;;4.15;;
67930;SDS011;63902;52.000;5.954;2023-10-08T02:57:52;17.55;;;4.93;;
67930;SDS011;63902;52.000;5.954;2023-10-08T02:58:53;13.07;;;4.05;;
67930;SDS011;63902;52.000;5.954;2023-10-08T02:59:53;17.20;;;4.32;;
67930;SDS011;63902;52.000;5.954;2023-10-08T03:00:54;18.48;;;4.00;;
67930;SDS011;63902;52.000;5.954;2023-10-08T03:01:54;16.73;;;4.47;;
67930;SDS011;63902;52.000;5.954;2023-10-08T03:02:55;18.13;;;4.30;;
67930;SDS011;63902;52.000;5.954;2023-10-08T03:03:56;18.55;;;4.32;;
67930;SDS011;63902;52.000;5.954;2023-10-08T03:04:57;15.23;;;4.20;;
67930;SDS011;63902;52.000;5.954;2023-10-08T03:05:57;13.73;;;4.13;;
67930;SDS011;63902;52.000;5.954;2023-10-08T03:06:58;26.17;;;4.10;;
67930;SDS011;63902;52.000;5.954;2023-10-08T03:07:59;17.42;;;4.93;;
67930;SDS011;63902;52.000;5.954;2023-10-08T03:09:00;21.73;;;4.65;;
67930;SDS011;63902;52.000;5.954;2023-10-08T03:10:01;13.65;;;4.28;;
67930;SDS011;63902;52.000;5.954;2023-10-08T03:11:02;15.60;;;4.30;;
67930;SDS011;63902;52.000;5.954;2023-10-08T03:12:03;19.17;;;4.78;;
67930;SDS011;63902;52.000;5.954;2023-10-08T03:13:03;20.33;;;4.93;;
67930;SDS011;63902;52.000;5.954;2023-10-08T03:14:04;16.85;;;4.45;;
67930;SDS011;63902;52.000;5.954;2023-10-08T03:15:05;20.17;;;4.50;;
67930;SDS011;63902;52.000;5.954;2023-10-08T03:16:06;25.70;;;4.80;;
67930;SDS011;63902;52.000;5.954;2023-10-08T03:17:06;14.70;;;3.90;;
67930;SDS011;63902;52.000;5.954;2023-10-08T03:18:07;25.10;;;4.85;;
67930;SDS011;63902;52.000;5.954;2023-10-08T03:19:07;13.05;;;3.80;;
67930;SDS011;63902;52.000;5.954;2023-10-08T03:20:08;19.60;;;4.43;;
67930;SDS011;63902;52.000;5.954;2023-10-08T03:21:09;17.25;;;4.15;;
67930;SDS011;63902;52.000;5.954;2023-10-08T03:22:10;23.48;;;4.95;;
67930;SDS011;63902;52.000;5.954;2023-10-08T03:23:12;17.08;;;4.40;;
67930;SDS011;63902;52.000;5.954;2023-10-08T03:24:15;25.42;;;5.53;;
67930;SDS011;63902;52.000;5.954;2023-10-08T03:25:15;19.95;;;4.40;;
67930;SDS011;63902;52.000;5.954;2023-10-08T03:26:16;16.90;;;3.90;;
67930;SDS011;63902;52.000;5.954;2023-10-08T03:27:17;14.70;;;4.38;;
67930;SDS011;63902;52.000;5.954;2023-10-08T03:28:17;14.45;;;4.20;;
67930;SDS011;63902;52.000;5.954;2023-10-08T03:29:18;14.25;;;3.90;;
67930;SDS011;63902;52.000;5.954;2023-10-08T03:30:18;17.52;;;4.60;;
67930;SDS011;63902;52.000;5.954;2023-10-08T03:31:19;17.27;;;4.72;;
67930;SDS011;63902;52.000;5.954;2023-10-08T03:32:19;19.23;;;4.85;;
67930;SDS011;63902;52.000;5.954;2023-10-08T03:33:20;19.13;;;4.43;;
67930;SDS011;63902;52.000;5.954;2023-10-08T03:34:20;22.88;;;4.53;;
67930;SDS011;63902;52.000;5.954;2023-10-08T03:35:21;14.95;;;5.07;;
67930;SDS011;63902;52.000;5.954;2023-10-08T03:36:21;14.20;;;4.28;;
67930;SDS011;63902;52.000;5.954;2023-10-08T03:37:22;14.68;;;4.60;;
67930;SDS011;63902;52.000;5.954;2023-10-08T03:38:23;24.73;;;5.25;;
67930;SDS011;63902;52.000;5.954;2023-10-08T03:39:25;22.83;;;4.72;;
67930;SDS011;63902;52.000;5.954;2023-10-08T03:40:25;16.55;;;4.75;;
67930;SDS011;63902;52.000;5.954;2023-10-08T03:41:26;20.25;;;4.57;;
67930;SDS011;63902;52.000;5.954;2023-10-08T03:42:26;17.13;;;4.15;;
67930;SDS011;63902;52.000;5.954;2023-10-08T03:43:27;25.42;;;4.60;;
67930;SDS011;63902;52.000;5.954;2023-10-08T03:44:28;16.42;;;4.82;;
67930;SDS011;63902;52.000;5.954;2023-10-08T03:45:28;15.98;;;4.97;;
67930;SDS011;63902;52.000;5.954;2023-10-08T03:46:29;17.60;;;4.95;;
67930;SDS011;63902;52.000;5.954;2023-10-08T03:47:29;28.48;;;6.43;;
67930;SDS011;63902;52.000;5.954;2023-10-08T03:48:30;22.60;;;6.60;;
67930;SDS011;63902;52.000;5.954;2023-10-08T03:49:30;20.50;;;7.32;;
67930;SDS011;63902;52.000;5.954;2023-10-08T03:50:31;28.45;;;7.25;;
67930;SDS011;63902;52.000;5.954;2023-10-08T03:51:31;29.58;;;6.60;;
67930;SDS011;63902;52.000;5.954;2023-10-08T03:52:32;22.92;;;7.45;;
67930;SDS011;63902;52.000;5.954;2023-10-08T03:53:32;26.55;;;7.70;;
67930;SDS011;63902;52.000;5.954;2023-10-08T03:54:34;28.38;;;7.75;;
67930;SDS011;63902;52.000;5.954;2023-10-08T03:55:35;28.95;;;8.55;;
67930;SDS011;63902;52.000;5.954;2023-10-08T03:56:35;22.48;;;7.25;;
67930;SDS011;63902;52.000;5.954;2023-10-08T03:57:36;26.55;;;7.90;;
67930;SDS011;63902;52.000;5.954;2023-10-08T03:58:37;29.15;;;7.90;;
67930;SDS011;63902;52.000;5.954;2023-10-08T03:59:37;35.92;;;8.32;;
67930;SDS011;63902;52.000;5.954;2023-10-08T04:00:38;28.40;;;7.97;;
67930;SDS011;63902;52.000;5.954;2023-10-08T04:01:38;25.00;;;7.97;;
67930;SDS011;63902;52.000;5.954;2023-10-08T04:02:39;22.20;;;6.72;;
67930;SDS011;63902;52.000;5.954;2023-10-08T04:03:39;22.25;;;7.25;;
67930;SDS011;63902;52.000;5.954;2023-10-08T04:04:40;19.63;;;6.25;;
67930;SDS011;63902;52.000;5.954;2023-10-08T04:05:41;22.40;;;7.18;;
67930;SDS011;63902;52.000;5.954;2023-10-08T04:06:41;20.92;;;6.70;;
67930;SDS011;63902;52.000;5.954;2023-10-08T04:07:42;21.50;;;8.07;;
67930;SDS011;63902;52.000;5.954;2023-10-08T04:08:43;22.70;;;7.63;;
67930;SDS011;63902;52.000;5.954;2023-10-08T04:09:45;25.08;;;7.03;;
67930;SDS011;63902;52.000;5.954;2023-10-08T04:10:45;26.90;;;6.70;;
67930;SDS011;63902;52.000;5.954;2023-10-08T04:11:46;21.85;;;6.75;;
67930;SDS011;63902;52.000;5.954;2023-10-08T04:12:47;25.70;;;7.25;;
67930;SDS011;63902;52.000;5.954;2023-10-08T04:13:47;28.98;;;6.97;;
67930;SDS011;63902;52.000;5.954;2023-10-08T04:14:48;29.63;;;7.00;;
67930;SDS011;63902;52.000;5.954;2023-10-08T04:15:48;25.52;;;7.22;;
67930;SDS011;63902;52.000;5.954;2023-10-08T04:16:49;26.02;;;7.03;;
67930;SDS011;63902;52.000;5.954;2023-10-08T04:17:50;15.43;;;4.93;;
67930;SDS011;63902;52.000;5.954;2023-10-08T04:18:51;21.38;;;4.40;;
67930;SDS011;63902;52.000;5.954;2023-10-08T04:19:51;20.45;;;5.10;;
67930;SDS011;63902;52.000;5.954;2023-10-08T04:20:52;16.42;;;4.25;;
67930;SDS011;63902;52.000;5.954;2023-10-08T04:21:53;14.63;;;4.07;;
67930;SDS011;63902;52.000;5.954;2023-10-08T04:22:54;12.93;;;4.10;;
67930;SDS011;63902;52.000;5.954;2023-10-08T04:23:54;23.55;;;4.97;;
67930;SDS011;63902;52.000;5.954;2023-10-08T04:24:56;14.88;;;3.58;;
67930;SDS011;63902;52.000;5.954;2023-10-08T04:25:57;14.50;;;3.53;;
67930;SDS011;63902;52.000;5.954;2023-10-08T04:26:57;17.00;;;3.40;;
67930;SDS011;63902;52.000;5.954;2023-10-08T04:27:58;10.77;;;3.75;;
67930;SDS011;63902;52.000;5.954;2023-10-08T04:29:01;17.40;;;3.72;;
67930;SDS011;63902;52.000;5.954;2023-10-08T04:30:02;16.00;;;3.28;;
67930;SDS011;63902;52.000;5.954;2023-10-08T04:31:03;17.27;;;3.42;;
67930;SDS011;63902;52.000;5.954;2023-10-08T04:32:04;10.93;;;2.60;;
67930;SDS011;63902;52.000;5.954;2023-10-08T04:33:05;17.00;;;3.13;;
67930;SDS011;63902;52.000;5.954;2023-10-08T04:34:06;11.13;;;3.15;;
67930;SDS011;63902;52.000;5.954;2023-10-08T04:35:07;19.58;;;3.35;;
67930;SDS011;63902;52.000;5.954;2023-10-08T04:36:08;15.45;;;4.30;;
67930;SDS011;63902;52.000;5.954;2023-10-08T04:37:08;15.88;;;2.70;;
67930;SDS011;63902;52.000;5.954;2023-10-08T04:38:09;13.63;;;3.03;;
67930;SDS011;63902;52.000;5.954;2023-10-08T04:39:09;17.00;;;2.85;;
67930;SDS011;63902;52.000;5.954;2023-10-08T04:40:11;7.25;;;2.65;;
67930;SDS011;63902;52.000;5.954;2023-10-08T04:41:12;13.05;;;2.97;;
67930;SDS011;63902;52.000;5.954;2023-10-08T04:42:12;15.32;;;3.47;;
67930;SDS011;63902;52.000;5.954;2023-10-08T04:43:13;10.82;;;3.60;;
67930;SDS011;63902;52.000;5.954;2023-10-08T04:44:13;10.05;;;2.55;;
67930;SDS011;63902;52.000;5.954;2023-10-08T04:45:14;16.70;;;3.10;;
67930;SDS011;63902;52.000;5.954;2023-10-08T04:46:15;10.25;;;2.58;;
67930;SDS011;63902;52.000;5.954;2023-10-08T04:47:15;15.65;;;2.83;;
67930;SDS011;63902;52.000;5.954;2023-10-08T04:48:16;12.18;;;2.85;;
67930;SDS011;63902;52.000;5.954;2023-10-08T04:49:16;12.95;;;2.85;;
67930;SDS011;63902;52.000;5.954;2023-10-08T04:50:17;13.57;;;2.58;;
67930;SDS011;63902;52.000;5.954;2023-10-08T04:51:18;13.00;;;3.17;;
67930;SDS011;63902;52.000;5.954;2023-10-08T04:52:18;11.18;;;2.95;;
67930;SDS011;63902;52.000;5.954;2023-10-08T04:53:19;12.82;;;2.92;;
67930;SDS011;63902;52.000;5.954;2023-10-08T04:54:19;5.88;;;2.60;;
67930;SDS011;63902;52.000;5.954;2023-10-08T04:55:21;12.25;;;2.90;;
67930;SDS011;63902;52.000;5.954;2023-10-08T04:56:22;8.35;;;2.92;;
67930;SDS011;63902;52.000;5.954;2023-10-08T04:57:22;10.02;;;2.88;;
67930;SDS011;63902;52.000;5.954;2023-10-08T04:58:23;9.48;;;3.58;;
67930;SDS011;63902;52.000;5.954;2023-10-08T04:59:24;11.18;;;3.10;;
67930;SDS011;63902;52.000;5.954;2023-10-08T05:00:24;11.77;;;2.97;;
67930;SDS011;63902;52.000;5.954;2023-10-08T05:01:25;13.13;;;2.55;;
67930;SDS011;63902;52.000;5.954;2023-10-08T05:02:25;11.07;;;2.88;;
67930;SDS011;63902;52.000;5.954;2023-10-08T05:03:26;9.07;;;2.90;;
67930;SDS011;63902;52.000;5.954;2023-10-08T05:04:26;9.48;;;2.63;;
67930;SDS011;63902;52.000;5.954;2023-10-08T05:05:27;8.05;;;2.70;;
67930;SDS011;63902;52.000;5.954;2023-10-08T05:06:28;13.35;;;3.17;;
67930;SDS011;63902;52.000;5.954;2023-10-08T05:07:29;13.27;;;2.83;;
67930;SDS011;63902;52.000;5.954;2023-10-08T05:08:30;7.72;;;2.58;;
67930;SDS011;63902;52.000;5.954;2023-10-08T05:09:30;8.80;;;2.70;;
67930;SDS011;63902;52.000;5.954;2023-10-08T05:10:32;13.20;;;3.17;;
67930;SDS011;63902;52.000;5.954;2023-10-08T05:11:32;8.95;;;3.15;;
67930;SDS011;63902;52.000;5.954;2023-10-08T05:12:33;11.63;;;3.10;;
67930;SDS011;63902;52.000;5.954;2023-10-08T05:13:34;7.25;;;2.70;;
67930;SDS011;63902;52.000;5.954;2023-10-08T05:14:34;9.48;;;2.95;;
67930;SDS011;63902;52.000;5.954;2023-10-08T05:15:35;9.55;;;2.83;;
67930;SDS011;63902;52.000;5.954;2023-10-08T05:16:35;6.72;;;2.80;;
67930;SDS011;63902;52.000;5.954;2023-10-08T05:17:36;6.55;;;2.83;;
67930;SDS011;63902;52.000;5.954;2023-10-08T05:18:36;9.27;;;2.97;;
67930;SDS011;63902;52.000;5.954;2023-10-08T05:19:37;9.25;;;3.03;;
67930;SDS011;63902;52.000;5.954;2023-10-08T05:20:38;8.25;;;2.65;;
67930;SDS011;63902;52.000;5.954;2023-10-08T05:21:40;6.45;;;2.35;;
67930;SDS011;63902;52.000;5.954;2023-10-08T05:22:40;11.20;;;3.22;;
67930;SDS011;63902;52.000;5.954;2023-10-08T05:23:41;16.98;;;3.80;;
67930;SDS011;63902;52.000;5.954;2023-10-08T05:24:41;12.13;;;3.05;;
67930;SDS011;63902;52.000;5.954;2023-10-08T05:25:43;7.10;;;3.13;;
67930;SDS011;63902;52.000;5.954;2023-10-08T05:26:44;9.38;;;3.63;;
67930;SDS011;63902;52.000;5.954;2023-10-08T05:27:45;10.50;;;3.05;;
67930;SDS011;63902;52.000;5.954;2023-10-08T05:28:46;9.02;;;2.78;;
67930;SDS011;63902;52.000;5.954;2023-10-08T05:29:46;9.15;;;2.70;;
67930;SDS011;63902;52.000;5.954;2023-10-08T05:30:47;10.70;;;3.03;;
67930;SDS011;63902;52.000;5.954;2023-10-08T05:31:47;9.40;;;3.10;;
67930;SDS011;63902;52.000;5.954;2023-10-08T05:32:48;10.02;;;2.72;;
67930;SDS011;63902;52.000;5.954;2023-10-08T05:33:48;9.30;;;3.15;;
67930;SDS011;63902;52.000;5.954;2023-10-08T05:34:49;12.27;;;3.10;;
67930;SDS011;63902;52.000;5.954;2023-10-08T05:35:49;8.52;;;2.55;;
67930;SDS011;63902;52.000;5.954;2023-10-08T05:36:50;6.53;;;2.67;;
67930;SDS011;63902;52.000;5.954;2023-10-08T05:37:50;9.80;;;3.13;;
67930;SDS011;63902;52.000;5.954;2023-10-08T05:38:51;10.02;;;3.40;;
67930;SDS011;63902;52.000;5.954;2023-10-08T05:39:51;13.43;;;3.35;;
67930;SDS011;63902;52.000;5.954;2023-10-08T05:40:53;6.05;;;2.90;;
67930;SDS011;63902;52.000;5.954;2023-10-08T05:41:54;9.65;;;3.10;;
67930;SDS011;63902;52.000;5.954;2023-10-08T05:42:54;10.65;;;3.00;;
67930;SDS011;63902;52.000;5.954;2023-10-08T05:43:55;6.35;;;2.63;;
67930;SDS011;63902;52.000;5.954;2023-10-08T05:44:55;9.68;;;3.03;;
67930;SDS011;63902;52.000;5.954;2023-10-08T05:45:56;5.88;;;2.28;;
67930;SDS011;63902;52.000;5.954;2023-10-08T05:46:56;7.30;;;2.83;;
67930;SDS011;63902;52.000;5.954;2023-10-08T05:47:57;10.55;;;2.70;;
67930;SDS011;63902;52.000;5.954;2023-10-08T05:48:58;9.18;;;2.67;;
67930;SDS011;63902;52.000;5.954;2023-10-08T05:50:00;7.28;;;2.60;;
67930;SDS011;63902;52.000;5.954;2023-10-08T05:51:05;15.27;;;2.95;;
67930;SDS011;63902;52.000;5.954;2023-10-08T05:52:06;6.38;;;2.25;;
67930;SDS011;63902;52.000;5.954;2023-10-08T05:53:07;7.95;;;3.00;;
67930;SDS011;63902;52.000;5.954;2023-10-08T05:54:07;8.35;;;2.70;;
67930;SDS011;63902;52.000;5.954;2023-10-08T05:55:08;8.05;;;2.20;;
67930;SDS011;63902;52.000;5.954;2023-10-08T05:56:10;10.00;;;2.63;;
67930;SDS011;63902;52.000;5.954;2023-10-08T05:57:10;6.95;;;2.20;;
67930;SDS011;63902;52.000;5.954;2023-10-08T05:58:11;6.68;;;2.00;;
67930;SDS011;63902;52.000;5.954;2023-10-08T05:59:11;7.43;;;2.38;;
67930;SDS011;63902;52.000;5.954;2023-10-08T06:00:12;4.10;;;1.85;;
67930;SDS011;63902;52.000;5.954;2023-10-08T06:01:13;9.35;;;2.55;;
67930;SDS011;63902;52.000;5.954;2023-10-08T06:02:14;8.40;;;2.50;;